createdAt,value
2023-11-01T00:02:22.288Z,99452.44
2023-11-01T00:06:24.545Z,99458.09
2023-11-01T00:10:26.602Z,99458.22
2023-11-01T00:14:28.745Z,99466.81
2023-11-01T00:18:31.164Z,99469.63
2023-11-01T00:22:36.075Z,99481.44
2023-11-01T00:26:39.340Z,99481.81
2023-11-01T00:30:41.620Z,99490.03
2023-11-01T00:34:44.343Z,99493.59
2023-11-01T00:38:46.586Z,99501.09
2023-11-01T00:42:48.981Z,99498.56
2023-11-01T00:46:51.347Z,99504.50
2023-11-01T00:50:53.578Z,99511.00
2023-11-01T00:54:55.833Z,99520.19
2023-11-01T00:58:58.101Z,99532.03
2023-11-01T01:03:00.546Z,99543.22
2023-11-01T01:07:02.808Z,99544.88
2023-11-01T01:11:05.057Z,99546.22
2023-11-01T01:15:07.742Z,99542.59
2023-11-01T01:19:10.119Z,99552.38
2023-11-01T01:23:12.690Z,99551.13
2023-11-01T01:27:15.270Z,99549.47
2023-11-01T01:31:17.591Z,99552.50
2023-11-01T01:35:19.865Z,99560.63
2023-11-01T01:39:22.719Z,99559.75
2023-11-01T01:43:25.300Z,99553.00
2023-11-01T01:47:27.795Z,99549.94
2023-11-01T01:51:29.813Z,99556.63
2023-11-01T01:55:32.399Z,99551.41
2023-11-01T01:59:34.841Z,99560.63
2023-11-01T02:03:38.215Z,99562.44
2023-11-01T02:07:40.632Z,99558.91
2023-11-01T02:11:46.348Z,99576.00
2023-11-01T02:15:49.535Z,99574.13
2023-11-01T02:19:51.776Z,99586.81
2023-11-01T02:23:56.491Z,99577.13
2023-11-01T02:27:58.895Z,99580.19
2023-11-01T02:32:01.252Z,99582.31
2023-11-01T02:36:03.862Z,99583.38
2023-11-01T02:40:07.076Z,99601.72
2023-11-01T02:44:10.029Z,99596.78
2023-11-01T02:48:12.486Z,99604.31
2023-11-01T02:52:14.933Z,99607.53
2023-11-01T02:56:21.739Z,99606.66
2023-11-01T03:00:24.420Z,99613.16
2023-11-01T03:04:26.573Z,99624.84
2023-11-01T03:08:28.729Z,99619.94
2023-11-01T03:12:30.824Z,99616.63
2023-11-01T03:16:37.322Z,99623.88
2023-11-01T03:20:39.797Z,99625.38
2023-11-01T03:24:41.964Z,99628.22
2023-11-01T03:28:46.206Z,99630.06
2023-11-01T03:32:48.329Z,99639.03
2023-11-01T03:36:50.967Z,99650.81
2023-11-01T03:40:53.253Z,99648.75
2023-11-01T03:44:55.306Z,99656.22
2023-11-01T03:48:57.699Z,99646.56
2023-11-01T03:53:00.696Z,99648.31
2023-11-01T03:57:03.589Z,99660.81
2023-11-01T04:01:05.809Z,99652.28
2023-11-01T04:05:08.365Z,99655.91
2023-11-01T04:09:11.554Z,99661.75
2023-11-01T04:13:13.715Z,99657.53
2023-11-01T04:17:16.436Z,99665.22
2023-11-01T04:21:19.621Z,99667.75
2023-11-01T04:25:22.187Z,99671.91
2023-11-01T04:29:26.752Z,99662.97
2023-11-01T04:33:29.084Z,99671.66
2023-11-01T04:37:31.784Z,99681.53
2023-11-01T04:41:34.095Z,99686.22
2023-11-01T04:45:36.251Z,99681.50
2023-11-01T04:49:39.433Z,99692.03
2023-11-01T04:53:41.797Z,99683.97
2023-11-01T04:57:44.403Z,99698.78
2023-11-01T05:01:48.708Z,99692.38
2023-11-01T05:05:51.168Z,99691.13
2023-11-01T05:09:53.474Z,99705.13
2023-11-01T05:13:55.680Z,99710.81
2023-11-01T05:17:58.135Z,99718.66
2023-11-01T05:22:00.548Z,99725.63
2023-11-01T05:26:02.826Z,99730.81
2023-11-01T05:30:05.913Z,99743.84
2023-11-01T05:34:08.697Z,99744.50
2023-11-01T05:38:11.307Z,99760.75
2023-11-01T05:42:13.793Z,99762.56
2023-11-01T05:46:21.816Z,99773.03
2023-11-01T05:50:25.479Z,99778.31
2023-11-01T05:54:28.544Z,99794.97
2023-11-01T05:58:30.688Z,99792.09
2023-11-01T06:02:33.388Z,99809.34
2023-11-01T06:06:35.850Z,99813.81
2023-11-01T06:10:38.748Z,99817.75
2023-11-01T06:14:41.252Z,99835.06
2023-11-01T06:18:44.475Z,99834.84
2023-11-01T06:22:48.126Z,99839.50
2023-11-01T06:26:50.242Z,99834.34
2023-11-01T06:30:52.597Z,99844.34
2023-11-01T06:34:54.831Z,99847.47
2023-11-01T06:38:57.891Z,99852.84
2023-11-01T06:43:00.665Z,99848.75
2023-11-01T06:47:02.847Z,99851.19
2023-11-01T06:51:05.304Z,99861.19
2023-11-01T06:55:07.756Z,99871.88
2023-11-01T06:59:09.887Z,99875.66
2023-11-01T07:03:12.533Z,99884.47
2023-11-01T07:07:15.624Z,99886.47
2023-11-01T07:11:20.184Z,99885.59
2023-11-01T07:15:22.896Z,99885.56
2023-11-01T07:19:25.364Z,99886.00
2023-11-01T07:23:27.911Z,99892.38
2023-11-01T07:27:30.086Z,99903.25
2023-11-01T07:31:32.451Z,99906.75
2023-11-01T07:35:34.618Z,99904.88
2023-11-01T07:39:36.990Z,99913.16
2023-11-01T07:43:43.332Z,99908.56
2023-11-01T07:47:45.697Z,99913.84
2023-11-01T07:51:47.910Z,99921.44
2023-11-01T07:55:53.073Z,99913.13
2023-11-01T07:59:56.661Z,99932.44
2023-11-01T08:03:59.140Z,99932.38
2023-11-01T08:08:01.723Z,99939.91
2023-11-01T08:12:04.612Z,99941.41
2023-11-01T08:16:07.313Z,99947.66
2023-11-01T08:20:10.439Z,99952.25
2023-11-01T08:24:12.702Z,99967.69
2023-11-01T08:28:15.080Z,99956.63
2023-11-01T08:32:17.431Z,99972.19
2023-11-01T08:36:19.751Z,99977.84
2023-11-01T08:40:22.123Z,99988.41
2023-11-01T08:44:24.295Z,99987.53
2023-11-01T08:48:26.596Z,99997.63
2023-11-01T08:52:30.269Z,99999.81
2023-11-01T08:56:32.499Z,99992.25
2023-11-01T09:00:42.348Z,100000.28
2023-11-01T09:04:49.789Z,100013.88
2023-11-01T09:08:52.128Z,100013.69
2023-11-01T09:12:53.806Z,100005.94
2023-11-01T09:16:56.645Z,100016.91
2023-11-01T09:20:58.843Z,100013.19
2023-11-01T09:25:00.896Z,100007.63
2023-11-01T09:29:02.916Z,100010.59
2023-11-01T09:33:05.266Z,100019.22
2023-11-01T09:37:07.328Z,100009.41
2023-11-01T09:41:09.732Z,100012.91
2023-11-01T09:45:13.330Z,100013.69
2023-11-01T09:49:17.255Z,100012.75
2023-11-01T09:53:19.461Z,100003.59
2023-11-01T09:57:23.827Z,100012.41
2023-11-01T10:01:28.503Z,100012.31
2023-11-01T10:05:31.025Z,100012.91
2023-11-01T10:09:33.205Z,100011.75
2023-11-01T10:13:35.392Z,100015.09
2023-11-01T10:17:37.596Z,100008.50
2023-11-01T10:21:39.789Z,100013.88
2023-11-01T10:25:46.252Z,100008.63
2023-11-01T10:29:49.158Z,100009.38
2023-11-01T10:33:51.811Z,100019.00
2023-11-01T10:37:59.661Z,100006.94
2023-11-01T10:42:02.381Z,100021.38
2023-11-01T10:46:04.833Z,100017.22
2023-11-01T10:50:07.580Z,100027.91
2023-11-01T10:54:11.114Z,100029.53
2023-11-01T10:58:15.499Z,100020.84
2023-11-01T11:02:24.888Z,100022.81
2023-11-01T11:06:39.652Z,100018.97
2023-11-01T11:10:44.144Z,100020.06
2023-11-01T11:14:47.955Z,100027.06
2023-11-01T11:18:49.740Z,100024.94
2023-11-01T11:23:04.033Z,100017.34
2023-11-01T11:27:06.564Z,100022.69
2023-11-01T11:31:16.834Z,100017.75
2023-11-01T11:35:20.270Z,100018.72
2023-11-01T11:39:22.135Z,100022.28
2023-11-01T11:44:03.181Z,100012.66
2023-11-01T11:48:40.862Z,100022.53
2023-11-01T11:52:46.524Z,100026.31
2023-11-01T11:56:53.591Z,100020.84
2023-11-01T12:00:55.644Z,100030.78
2023-11-01T12:04:59.002Z,100037.44
2023-11-01T12:09:01.058Z,100029.53
2023-11-01T12:13:02.831Z,100034.69
2023-11-01T12:17:05.387Z,100026.88
2023-11-01T12:21:15.297Z,100028.28
2023-11-01T12:25:24.419Z,100038.72
2023-11-01T12:29:47.234Z,100036.22
2023-11-01T12:34:09.202Z,100037.47
2023-11-01T12:38:18.788Z,100054.66
2023-11-01T12:42:26.086Z,100050.31
2023-11-01T12:46:27.825Z,100059.19
2023-11-01T12:50:32.340Z,100057.53
2023-11-01T12:54:34.584Z,100064.06
2023-11-01T12:58:39.571Z,100061.06
2023-11-01T13:02:42.329Z,100055.19
2023-11-01T13:06:45.471Z,100056.38
2023-11-01T13:10:47.561Z,100064.75
2023-11-01T13:14:50.121Z,100062.13
2023-11-01T13:18:52.388Z,100062.97
2023-11-01T13:22:55.115Z,100067.53
2023-11-01T13:26:57.603Z,100062.47
2023-11-01T13:31:00.342Z,100067.19
2023-11-01T13:35:02.465Z,100067.63
2023-11-01T13:39:04.912Z,100077.16
2023-11-01T13:43:07.139Z,100071.06
2023-11-01T13:47:09.323Z,100073.56
2023-11-01T13:51:12.376Z,100070.28
2023-11-01T13:55:14.744Z,100068.34
2023-11-01T13:59:17.293Z,100072.53
2023-11-01T14:03:20.049Z,100069.41
2023-11-01T14:07:22.400Z,100077.25
2023-11-01T14:11:25.580Z,100072.88
2023-11-01T14:15:28.288Z,100082.84
2023-11-01T14:19:30.644Z,100072.34
2023-11-01T14:23:32.765Z,100069.34
2023-11-01T14:27:34.475Z,100074.13
2023-11-01T14:31:36.503Z,100071.66
2023-11-01T14:35:39.764Z,100063.78
2023-11-01T14:39:41.894Z,100073.00
2023-11-01T14:43:44.040Z,100072.03
2023-11-01T14:47:47.124Z,100061.13
2023-11-01T14:51:49.303Z,100065.00
2023-11-01T14:55:51.357Z,100059.22
2023-11-01T14:59:54.606Z,100061.00
2023-11-01T15:03:56.725Z,100064.09
2023-11-01T15:07:59.165Z,100065.31
2023-11-01T15:12:00.831Z,100056.38
2023-11-01T15:16:03.068Z,100055.06
2023-11-01T15:20:05.601Z,100060.44
2023-11-01T15:24:08.181Z,100069.22
2023-11-01T15:28:10.282Z,100070.88
2023-11-01T15:32:12.385Z,100070.25
2023-11-01T15:36:14.611Z,100079.06
2023-11-01T15:40:16.692Z,100086.69
2023-11-01T15:44:20.013Z,100080.47
2023-11-01T15:48:22.902Z,100084.78
2023-11-01T15:52:25.046Z,100077.13
2023-11-01T15:56:27.235Z,100094.66
2023-11-01T16:00:29.367Z,100097.94
2023-11-01T16:04:31.878Z,100094.81
2023-11-01T16:08:34.182Z,100097.00
2023-11-01T16:12:37.415Z,100100.84
2023-11-01T16:16:41.447Z,100104.63
2023-11-01T16:20:43.611Z,100098.75
2023-11-01T16:24:45.726Z,100097.31
2023-11-01T16:28:47.847Z,100092.13
2023-11-01T16:32:56.178Z,100084.44
2023-11-01T16:36:59.370Z,100089.19
2023-11-01T16:41:01.364Z,100086.69
2023-11-01T16:45:04.147Z,100091.56
2023-11-01T16:49:07.999Z,100092.03
2023-11-01T16:53:09.817Z,100095.84
2023-11-01T16:57:12.003Z,100086.00
2023-11-01T17:01:14.154Z,100079.72
2023-11-01T17:05:16.272Z,100079.19
2023-11-01T17:09:18.431Z,100080.09
2023-11-01T17:13:20.513Z,100085.81
2023-11-01T17:17:22.555Z,100079.03
2023-11-01T17:21:24.658Z,100079.53
2023-11-01T17:25:32.829Z,100072.03
2023-11-01T17:29:34.859Z,100077.22
2023-11-01T17:33:39.222Z,100082.25
2023-11-01T17:37:46.965Z,100072.53
2023-11-01T17:41:56.907Z,100075.34
2023-11-01T17:45:59.066Z,100067.59
2023-11-01T17:50:05.993Z,100067.22
2023-11-01T17:54:10.377Z,100070.19
2023-11-01T17:58:18.217Z,100057.53
2023-11-01T18:02:32.321Z,100054.88
2023-11-01T18:06:35.293Z,100053.28
2023-11-01T18:10:45.970Z,100053.38
2023-11-01T18:14:48.368Z,100050.84
2023-11-01T18:18:52.566Z,100053.69
2023-11-01T18:22:55.770Z,100053.81
2023-11-01T18:26:57.800Z,100045.03
2023-11-01T18:31:00.512Z,100050.06
2023-11-01T18:35:02.758Z,100052.56
2023-11-01T18:39:05.155Z,100048.97
2023-11-01T18:43:07.552Z,100049.31
2023-11-01T18:47:09.819Z,100051.72
2023-11-01T18:51:50.568Z,100055.28
2023-11-01T18:55:53.147Z,100045.81
2023-11-01T18:59:55.500Z,100043.84
2023-11-01T19:03:57.322Z,100047.50
2023-11-01T19:08:03.310Z,100052.72
2023-11-01T19:12:06.119Z,100053.59
2023-11-01T19:16:13.649Z,100057.63
2023-11-01T19:20:15.834Z,100062.03
2023-11-01T19:24:18.110Z,100064.84
2023-11-01T19:28:20.389Z,100056.78
2023-11-01T19:32:22.793Z,100061.16
2023-11-01T19:36:25.404Z,100049.97
2023-11-01T19:40:28.490Z,100051.22
2023-11-01T19:44:31.002Z,100057.38
2023-11-01T19:48:33.253Z,100054.84
2023-11-01T19:52:35.757Z,100050.44
2023-11-01T19:56:38.977Z,100057.59
2023-11-01T20:00:42.369Z,100041.44
2023-11-01T20:04:44.882Z,100047.69
2023-11-01T20:08:46.968Z,100045.59
2023-11-01T20:12:49.123Z,100033.38
2023-11-01T20:16:51.938Z,100023.78
2023-11-01T20:20:54.565Z,100032.81
2023-11-01T20:24:56.715Z,100026.47
2023-11-01T20:29:00.558Z,100015.66
2023-11-01T20:33:05.190Z,100010.06
2023-11-01T20:37:07.432Z,100011.31
2023-11-01T20:41:10.115Z,100011.31
2023-11-01T20:45:12.259Z,100004.97
2023-11-01T20:49:14.713Z,100001.88
2023-11-01T20:53:17.745Z,100003.25
2023-11-01T20:57:24.508Z,99999.97
2023-11-01T21:01:26.683Z,99995.59
2023-11-01T21:05:28.833Z,99998.44
2023-11-01T21:09:30.739Z,99993.16
2023-11-01T21:13:32.867Z,99987.31
2023-11-01T21:17:36.103Z,100001.47
2023-11-01T21:21:41.741Z,99998.59
2023-11-01T21:25:43.890Z,99995.09
2023-11-01T21:29:46.232Z,99988.25
2023-11-01T21:33:48.654Z,99990.75
2023-11-01T21:37:50.796Z,99987.38
2023-11-01T21:41:52.946Z,99977.16
2023-11-01T21:45:55.230Z,99972.38
2023-11-01T21:49:59.436Z,99976.81
2023-11-01T21:54:05.400Z,99970.03
2023-11-01T21:58:13.707Z,99974.91
2023-11-01T22:02:49.374Z,99975.44
2023-11-01T22:06:52.876Z,99961.03
2023-11-01T22:10:55.037Z,99972.72
2023-11-01T22:14:57.026Z,99966.59
2023-11-01T22:19:01.453Z,99960.84
2023-11-01T22:23:03.505Z,99967.88
2023-11-01T22:27:08.076Z,99974.03
2023-11-01T22:31:22.469Z,99960.63
2023-11-01T22:35:44.893Z,99963.09
2023-11-01T22:39:47.644Z,99955.06
2023-11-01T22:43:52.244Z,99950.00
2023-11-01T22:47:54.335Z,99947.38
2023-11-01T22:51:56.500Z,99947.56
2023-11-01T22:55:58.595Z,99939.59
2023-11-01T23:00:00.688Z,99933.59
2023-11-01T23:04:02.919Z,99933.81
2023-11-01T23:08:05.324Z,99930.19
2023-11-01T23:12:10.012Z,99933.81
2023-11-01T23:16:12.455Z,99927.63
2023-11-01T23:20:14.971Z,99928.97
2023-11-01T23:24:17.161Z,99931.00
2023-11-01T23:28:28.182Z,99922.69
2023-11-01T23:32:30.392Z,99923.97
2023-11-01T23:36:32.422Z,99917.00
2023-11-01T23:40:38.191Z,99914.84
2023-11-01T23:44:41.337Z,99904.28
2023-11-01T23:48:48.381Z,99891.84
2023-11-01T23:52:50.429Z,99890.41
2023-11-01T23:56:52.512Z,99898.66
